createdAt,value
2023-03-16T00:02:06.475Z,30.37
2023-03-16T00:04:37.865Z,33.93
2023-03-16T00:07:10.634Z,32.17
2023-03-16T00:09:41.295Z,33.30
2023-03-16T00:12:17.362Z,38.10
2023-03-16T00:14:47.484Z,28.30
2023-03-16T00:17:20.980Z,32.03
2023-03-16T00:19:55.340Z,28.43
2023-03-16T00:22:28.830Z,36.13
2023-03-16T00:24:56.589Z,31.00
2023-03-16T00:27:26.360Z,29.13
2023-03-16T00:29:56.114Z,42.37
2023-03-16T00:32:29.562Z,30.83
2023-03-16T00:34:57.030Z,32.87
2023-03-16T00:37:26.683Z,35.10
2023-03-16T00:39:57.757Z,36.13
2023-03-16T00:42:30.423Z,34.00
2023-03-16T00:44:59.239Z,30.63
2023-03-16T00:47:29.938Z,34.17
2023-03-16T00:49:57.628Z,29.47
2023-03-16T00:52:27.348Z,32.47
2023-03-16T00:54:55.969Z,30.70
2023-03-16T00:57:25.777Z,30.03
2023-03-16T00:59:52.940Z,35.53
2023-03-16T01:02:23.652Z,27.50
2023-03-16T01:04:54.418Z,27.87
2023-03-16T01:07:21.995Z,26.57
2023-03-16T01:09:49.035Z,28.87
2023-03-16T01:12:19.303Z,29.57
2023-03-16T01:14:47.253Z,27.60
2023-03-16T01:17:17.267Z,33.73
2023-03-16T01:19:45.270Z,25.87
2023-03-16T01:22:13.155Z,33.90
2023-03-16T01:24:41.256Z,31.93
2023-03-16T01:27:09.189Z,29.83
2023-03-16T01:29:37.816Z,32.17
2023-03-16T01:32:05.796Z,32.00
2023-03-16T01:34:34.336Z,28.03
2023-03-16T01:37:01.865Z,28.83
2023-03-16T01:39:28.933Z,26.50
2023-03-16T01:41:55.954Z,29.60
2023-03-16T01:44:30.668Z,29.40
2023-03-16T01:46:58.271Z,29.97
2023-03-16T01:49:36.914Z,30.33
2023-03-16T01:52:22.595Z,25.33
2023-03-16T01:55:00.736Z,34.77
2023-03-16T01:57:35.393Z,26.67
2023-03-16T02:00:19.999Z,34.00
2023-03-16T02:02:56.447Z,29.73
2023-03-16T02:05:54.671Z,24.80
2023-03-16T02:08:23.106Z,19.03
2023-03-16T02:10:54.757Z,25.37
2023-03-16T02:13:24.660Z,24.97
2023-03-16T02:15:53.687Z,24.57
2023-03-16T02:18:23.160Z,23.30
2023-03-16T02:21:12.081Z,21.67
2023-03-16T02:23:39.132Z,22.93
2023-03-16T02:26:33.747Z,22.93
2023-03-16T02:29:39.833Z,18.70
2023-03-16T02:32:07.124Z,19.17
2023-03-16T02:34:35.263Z,18.83
2023-03-16T02:37:03.521Z,19.73
2023-03-16T02:39:30.608Z,21.60
2023-03-16T02:41:57.902Z,20.80
2023-03-16T02:44:36.992Z,19.07
2023-03-16T02:47:11.362Z,21.67
2023-03-16T02:49:42.217Z,20.13
2023-03-16T02:52:09.914Z,22.13
2023-03-16T02:54:37.163Z,19.40
2023-03-16T02:57:05.315Z,21.03
2023-03-16T02:59:32.338Z,18.17
2023-03-16T03:01:59.539Z,20.47
2023-03-16T03:04:26.568Z,22.90
2023-03-16T03:06:53.661Z,22.97
2023-03-16T03:09:20.985Z,24.90
2023-03-16T03:11:48.080Z,20.63
2023-03-16T03:14:16.884Z,21.57
2023-03-16T03:16:46.891Z,18.80
2023-03-16T03:19:14.266Z,24.33
2023-03-16T03:21:41.837Z,21.13
2023-03-16T03:24:10.110Z,21.90
2023-03-16T03:26:40.716Z,20.43
2023-03-16T03:29:07.749Z,24.03
2023-03-16T03:31:35.648Z,31.43
2023-03-16T03:34:06.660Z,24.43
2023-03-16T03:36:35.227Z,24.83
2023-03-16T03:39:05.199Z,22.17
2023-03-16T03:41:33.646Z,24.00
2023-03-16T03:44:01.015Z,27.13
2023-03-16T03:46:28.555Z,27.53
2023-03-16T03:48:55.768Z,26.00
2023-03-16T03:51:22.831Z,20.83
2023-03-16T03:53:50.021Z,26.97
2023-03-16T03:56:17.043Z,25.10
2023-03-16T03:58:44.170Z,24.63
2023-03-16T04:01:11.201Z,30.23
2023-03-16T04:03:38.202Z,29.37
2023-03-16T04:06:07.311Z,28.30
2023-03-16T04:08:35.635Z,24.47
2023-03-16T04:11:02.685Z,22.90
2023-03-16T04:13:30.025Z,21.27
2023-03-16T04:15:59.249Z,24.13
2023-03-16T04:18:26.369Z,27.07
2023-03-16T04:20:53.414Z,26.60
2023-03-16T04:23:21.883Z,26.47
2023-03-16T04:25:48.861Z,25.43
2023-03-16T04:28:18.016Z,30.30
2023-03-16T04:30:45.178Z,20.40
2023-03-16T04:33:12.227Z,23.83
2023-03-16T04:35:39.294Z,23.23
2023-03-16T04:38:06.386Z,23.43
2023-03-16T04:40:33.373Z,24.37
2023-03-16T04:43:00.356Z,22.13
2023-03-16T04:45:27.472Z,22.80
2023-03-16T04:47:54.594Z,22.27
2023-03-16T04:50:22.821Z,23.63
2023-03-16T04:52:49.975Z,28.33
2023-03-16T04:55:17.801Z,21.87
2023-03-16T04:57:44.786Z,25.30
2023-03-16T05:00:23.406Z,24.07
2023-03-16T05:02:54.582Z,25.20
2023-03-16T05:05:22.404Z,23.57
2023-03-16T05:07:50.304Z,22.57
2023-03-16T05:10:19.258Z,25.67
2023-03-16T05:12:46.336Z,24.13
2023-03-16T05:15:14.168Z,30.43
2023-03-16T05:17:42.501Z,22.13
2023-03-16T05:20:16.223Z,24.37
2023-03-16T05:22:46.501Z,25.03
2023-03-16T05:25:15.263Z,25.27
2023-03-16T05:27:44.455Z,28.93
2023-03-16T05:30:13.697Z,23.17
2023-03-16T05:32:40.937Z,23.83
2023-03-16T05:35:10.100Z,21.27
2023-03-16T05:37:38.209Z,24.47
2023-03-16T05:40:17.395Z,29.60
2023-03-16T05:42:50.548Z,24.48
2023-03-16T05:45:18.228Z,19.55
2023-03-16T05:47:45.224Z,24.85
2023-03-16T05:50:14.432Z,25.95
2023-03-16T05:52:41.611Z,24.17
2023-03-16T05:55:09.850Z,26.33
2023-03-16T05:57:36.973Z,25.67
2023-03-16T06:00:16.752Z,26.00
2023-03-16T06:02:49.424Z,19.75
2023-03-16T06:05:19.178Z,21.40
2023-03-16T06:07:46.219Z,24.77
2023-03-16T06:10:14.629Z,26.98
2023-03-16T06:12:42.128Z,23.38
2023-03-16T06:15:11.379Z,26.50
2023-03-16T06:17:40.997Z,22.48
2023-03-16T06:20:11.438Z,25.60
2023-03-16T06:22:41.569Z,27.67
2023-03-16T06:25:10.249Z,26.25
2023-03-16T06:27:37.738Z,26.98
2023-03-16T06:30:12.089Z,35.35
2023-03-16T06:32:42.367Z,31.52
2023-03-16T06:35:10.640Z,29.27
2023-03-16T06:37:38.115Z,26.40
2023-03-16T06:40:06.459Z,29.67
2023-03-16T06:42:33.724Z,23.63
2023-03-16T06:45:00.988Z,31.13
2023-03-16T06:47:28.070Z,29.35
2023-03-16T06:49:55.402Z,28.30
2023-03-16T06:52:22.796Z,27.00
2023-03-16T06:54:49.993Z,27.48
2023-03-16T06:57:18.058Z,27.00
2023-03-16T06:59:45.158Z,25.90
2023-03-16T07:02:15.343Z,33.75
2023-03-16T07:04:42.534Z,32.28
2023-03-16T07:07:11.719Z,30.15
2023-03-16T07:09:41.536Z,28.15
2023-03-16T07:12:10.057Z,33.22
2023-03-16T07:14:37.551Z,28.70
2023-03-16T07:17:04.997Z,25.90
2023-03-16T07:19:32.268Z,26.25
2023-03-16T07:21:59.568Z,23.73
2023-03-16T07:24:26.673Z,31.17
2023-03-16T07:26:53.867Z,22.83
2023-03-16T07:29:20.881Z,21.80
2023-03-16T07:31:48.251Z,21.60
2023-03-16T07:34:15.380Z,20.33
2023-03-16T07:36:42.428Z,26.45
2023-03-16T07:39:09.881Z,28.02
2023-03-16T07:41:36.916Z,21.90
2023-03-16T07:44:04.324Z,35.55
2023-03-16T07:46:32.809Z,26.33
2023-03-16T07:48:59.966Z,27.38
2023-03-16T07:51:26.966Z,20.75
2023-03-16T07:53:54.098Z,24.73
2023-03-16T07:56:21.624Z,23.23
2023-03-16T07:58:48.673Z,22.85
2023-03-16T08:01:15.750Z,32.17
2023-03-16T08:03:43.010Z,27.90
2023-03-16T08:06:10.639Z,23.50
2023-03-16T08:08:37.703Z,23.52
2023-03-16T08:11:04.851Z,17.40
2023-03-16T08:13:31.871Z,18.15
2023-03-16T08:16:02.129Z,24.88
2023-03-16T08:18:31.019Z,22.45
2023-03-16T08:20:58.715Z,23.23
2023-03-16T08:23:26.226Z,28.02
2023-03-16T08:25:58.010Z,24.42
2023-03-16T08:28:26.087Z,22.90
2023-03-16T08:30:55.604Z,20.05
2023-03-16T08:33:23.522Z,22.55
2023-03-16T08:35:50.820Z,25.90
2023-03-16T08:38:19.324Z,23.13
2023-03-16T08:40:49.691Z,24.20
2023-03-16T08:43:19.119Z,20.17
2023-03-16T08:45:46.711Z,20.48
2023-03-16T08:48:14.411Z,20.75
2023-03-16T08:50:44.289Z,23.08
2023-03-16T08:53:13.600Z,18.75
2023-03-16T08:55:41.950Z,23.25
2023-03-16T08:58:10.469Z,16.95
2023-03-16T09:00:38.352Z,20.88
2023-03-16T09:03:06.438Z,19.75
2023-03-16T09:05:34.157Z,19.80
2023-03-16T09:08:01.695Z,19.58
2023-03-16T09:10:29.096Z,18.80
2023-03-16T09:12:56.785Z,16.25
2023-03-16T09:15:24.077Z,17.83
2023-03-16T09:17:51.151Z,13.75
2023-03-16T09:20:34.570Z,18.45
2023-03-16T09:23:01.854Z,12.52
2023-03-16T09:25:29.140Z,12.60
2023-03-16T09:27:56.377Z,15.77
2023-03-16T09:30:23.428Z,12.10
2023-03-16T09:32:50.872Z,16.67
2023-03-16T09:35:18.202Z,12.10
2023-03-16T09:38:01.198Z,13.85
2023-03-16T09:40:33.488Z,9.77
2023-03-16T09:43:35.937Z,10.10
2023-03-16T09:46:36.800Z,9.65
2023-03-16T09:49:06.525Z,9.35
2023-03-16T09:51:49.802Z,11.35
2023-03-16T09:55:07.208Z,11.95
2023-03-16T09:57:40.612Z,18.92
2023-03-16T10:00:34.252Z,13.73
2023-03-16T10:03:08.276Z,13.10
2023-03-16T10:05:37.296Z,21.77
2023-03-16T10:08:22.438Z,13.45
2023-03-16T10:11:02.235Z,17.90
2023-03-16T10:13:48.508Z,9.40
2023-03-16T10:16:23.984Z,12.40
2023-03-16T10:19:18.713Z,11.63
2023-03-16T10:21:46.948Z,13.43
2023-03-16T10:24:28.660Z,12.50
2023-03-16T10:27:01.203Z,10.57
2023-03-16T10:29:36.994Z,11.50
2023-03-16T10:32:16.620Z,12.88
2023-03-16T10:34:58.750Z,14.23
2023-03-16T10:37:30.032Z,11.65
2023-03-16T10:39:57.384Z,14.52
2023-03-16T10:42:25.110Z,13.68
2023-03-16T10:45:01.775Z,11.10
2023-03-16T10:47:33.656Z,22.85
2023-03-16T10:50:14.405Z,10.75
2023-03-16T10:52:47.006Z,15.23
2023-03-16T10:55:26.945Z,10.52
2023-03-16T10:57:56.314Z,9.43
2023-03-16T11:00:34.641Z,12.52
2023-03-16T11:03:12.555Z,18.23
2023-03-16T11:05:39.698Z,8.95
2023-03-16T11:08:13.643Z,7.45
2023-03-16T11:10:55.638Z,11.75
2023-03-16T11:13:35.304Z,7.53
2023-03-16T11:16:24.207Z,9.82
2023-03-16T11:19:04.140Z,6.30
2023-03-16T11:22:19.999Z,7.45
2023-03-16T11:25:20.432Z,8.90
2023-03-16T11:28:13.008Z,7.40
2023-03-16T11:31:02.983Z,10.30
2023-03-16T11:33:32.103Z,11.40
2023-03-16T11:36:20.435Z,12.60
2023-03-16T11:39:14.144Z,14.32
2023-03-16T11:42:09.580Z,20.17
2023-03-16T11:44:57.483Z,12.35
2023-03-16T11:48:04.304Z,15.40
2023-03-16T11:50:49.768Z,14.18
2023-03-16T11:53:25.549Z,14.13
2023-03-16T11:56:10.655Z,8.15
2023-03-16T11:59:14.266Z,16.55
2023-03-16T12:02:13.361Z,13.18
2023-03-16T12:05:33.666Z,12.10
2023-03-16T12:08:38.321Z,12.27
2023-03-16T12:11:40.949Z,11.88
2023-03-16T12:14:26.695Z,11.75
2023-03-16T12:17:15.862Z,13.35
2023-03-16T12:20:14.063Z,13.98
2023-03-16T12:22:59.952Z,9.43
2023-03-16T12:25:40.935Z,11.18
2023-03-16T12:28:27.730Z,13.50
2023-03-16T12:31:15.394Z,9.77
2023-03-16T12:34:09.057Z,18.45
2023-03-16T12:37:02.596Z,15.57
2023-03-16T12:40:09.173Z,14.30
2023-03-16T12:43:08.357Z,16.13
2023-03-16T12:46:11.810Z,15.77
2023-03-16T12:48:52.308Z,13.15
2023-03-16T12:51:19.434Z,10.85
2023-03-16T12:53:55.339Z,13.88
2023-03-16T12:56:44.697Z,16.63
2023-03-16T12:59:21.069Z,18.55
2023-03-16T13:02:03.670Z,11.50
2023-03-16T13:04:41.707Z,13.93
2023-03-16T13:07:22.769Z,20.65
2023-03-16T13:10:10.086Z,9.70
2023-03-16T13:12:41.799Z,14.65
2023-03-16T13:15:22.148Z,8.02
2023-03-16T13:18:04.601Z,15.30
2023-03-16T13:20:50.837Z,14.95
2023-03-16T13:23:22.350Z,10.48
2023-03-16T13:26:27.159Z,12.10
2023-03-16T13:28:55.499Z,11.63
2023-03-16T13:31:35.947Z,9.70
2023-03-16T13:34:06.921Z,13.27
2023-03-16T13:36:35.579Z,14.55
2023-03-16T13:39:23.385Z,8.35
2023-03-16T13:42:20.960Z,7.82
2023-03-16T13:44:48.568Z,12.27
2023-03-16T13:47:20.183Z,17.58
2023-03-16T13:49:55.929Z,14.15
2023-03-16T13:52:31.269Z,11.98
2023-03-16T13:55:01.953Z,12.57
2023-03-16T13:57:35.547Z,20.17
2023-03-16T14:00:26.624Z,13.55
2023-03-16T14:03:14.413Z,18.00
2023-03-16T14:05:41.643Z,17.27
2023-03-16T14:08:23.376Z,7.63
2023-03-16T14:10:53.570Z,12.48
2023-03-16T14:13:32.337Z,13.77
2023-03-16T14:16:15.365Z,16.40
2023-03-16T14:19:06.139Z,13.20
2023-03-16T14:21:34.776Z,19.23
2023-03-16T14:24:20.144Z,14.70
2023-03-16T14:26:48.408Z,11.57
2023-03-16T14:29:42.623Z,9.52
2023-03-16T14:32:30.320Z,15.05
2023-03-16T14:35:10.701Z,9.18
2023-03-16T14:37:38.396Z,14.18
2023-03-16T14:40:21.964Z,9.63
2023-03-16T14:42:49.272Z,11.10
2023-03-16T14:45:17.619Z,10.05
2023-03-16T14:47:48.453Z,11.63
2023-03-16T14:50:25.946Z,8.73
2023-03-16T14:52:56.562Z,13.10
2023-03-16T14:55:24.878Z,8.80
2023-03-16T14:57:51.929Z,14.30
2023-03-16T15:00:22.175Z,9.45
2023-03-16T15:03:08.181Z,8.50
2023-03-16T15:05:42.283Z,5.93
2023-03-16T15:08:43.518Z,12.93
2023-03-16T15:11:10.932Z,12.65
2023-03-16T15:13:58.218Z,6.28
2023-03-16T15:16:26.139Z,14.85
2023-03-16T15:18:53.302Z,10.90
2023-03-16T15:21:25.149Z,6.43
2023-03-16T15:23:52.315Z,17.48
2023-03-16T15:26:26.280Z,12.07
2023-03-16T15:28:57.279Z,12.27
2023-03-16T15:31:24.567Z,11.30
2023-03-16T15:33:51.713Z,12.02
2023-03-16T15:36:22.378Z,10.02
2023-03-16T15:38:53.224Z,16.20
2023-03-16T15:41:20.561Z,11.95
2023-03-16T15:43:47.611Z,9.30
2023-03-16T15:46:15.090Z,10.10
2023-03-16T15:48:44.475Z,10.35
2023-03-16T15:51:27.362Z,9.63
2023-03-16T15:54:01.885Z,10.93
2023-03-16T15:56:41.162Z,14.13
2023-03-16T15:59:17.013Z,9.73
2023-03-16T16:01:47.639Z,11.15
2023-03-16T16:04:19.871Z,12.80
2023-03-16T16:06:48.726Z,10.73
2023-03-16T16:09:16.430Z,12.73
2023-03-16T16:11:44.223Z,14.82
2023-03-16T16:14:16.214Z,8.95
2023-03-16T16:16:46.145Z,6.70
2023-03-16T16:19:18.925Z,12.23
2023-03-16T16:21:47.478Z,11.07
2023-03-16T16:24:15.643Z,12.18
2023-03-16T16:26:51.930Z,13.40
2023-03-16T16:29:24.525Z,8.60
2023-03-16T16:31:52.383Z,8.47
2023-03-16T16:34:24.530Z,5.68
2023-03-16T16:36:52.469Z,14.90
2023-03-16T16:39:20.664Z,8.83
2023-03-16T16:41:51.358Z,12.23
2023-03-16T16:44:27.431Z,10.87
2023-03-16T16:46:55.554Z,15.10
2023-03-16T16:49:31.243Z,8.23
2023-03-16T16:51:59.348Z,10.80
2023-03-16T16:54:31.111Z,13.27
2023-03-16T16:57:00.020Z,6.00
2023-03-16T16:59:37.042Z,8.30
2023-03-16T17:02:30.703Z,10.83
2023-03-16T17:04:57.946Z,12.40
2023-03-16T17:07:25.183Z,6.07
2023-03-16T17:09:52.280Z,9.57
2023-03-16T17:12:23.541Z,9.73
2023-03-16T17:14:51.690Z,10.03
2023-03-16T17:17:19.164Z,13.83
2023-03-16T17:19:48.248Z,12.33
2023-03-16T17:22:28.333Z,14.83
2023-03-16T17:24:55.656Z,12.93
2023-03-16T17:27:30.424Z,15.77
2023-03-16T17:29:58.587Z,11.67
2023-03-16T17:32:26.657Z,13.33
2023-03-16T17:34:54.255Z,9.37
2023-03-16T17:37:23.657Z,17.87
2023-03-16T17:39:52.056Z,11.77
2023-03-16T17:42:19.926Z,16.50
2023-03-16T17:44:53.239Z,13.57
2023-03-16T17:47:27.556Z,16.00
2023-03-16T17:49:56.945Z,18.20
2023-03-16T17:52:26.635Z,27.60
2023-03-16T17:54:54.832Z,13.97
2023-03-16T17:57:31.124Z,9.73
2023-03-16T18:00:00.823Z,22.80
2023-03-16T18:02:51.568Z,21.10
2023-03-16T18:05:28.768Z,17.30
2023-03-16T18:08:01.313Z,24.23
2023-03-16T18:10:31.327Z,20.83
2023-03-16T18:13:30.149Z,18.80
2023-03-16T18:15:58.808Z,18.17
2023-03-16T18:18:29.609Z,22.77
2023-03-16T18:21:00.454Z,21.70
2023-03-16T18:23:33.661Z,23.53
2023-03-16T18:26:03.395Z,21.13
2023-03-16T18:28:32.657Z,26.97
2023-03-16T18:31:00.496Z,20.80
2023-03-16T18:33:37.382Z,27.40
2023-03-16T18:36:17.754Z,25.90
2023-03-16T18:38:50.596Z,19.70
2023-03-16T18:41:28.365Z,21.73
2023-03-16T18:44:16.845Z,26.10
2023-03-16T18:46:44.830Z,21.70
2023-03-16T18:49:36.205Z,21.57
2023-03-16T18:52:12.626Z,19.17
2023-03-16T18:54:40.055Z,20.33
2023-03-16T18:57:18.793Z,16.87
2023-03-16T18:59:46.633Z,24.43
2023-03-16T19:02:23.018Z,22.60
2023-03-16T19:04:50.298Z,31.90
2023-03-16T19:07:32.496Z,21.97
2023-03-16T19:10:05.478Z,20.87
2023-03-16T19:12:32.641Z,18.23
2023-03-16T19:14:59.628Z,22.47
2023-03-16T19:17:26.804Z,27.43
2023-03-16T19:19:53.976Z,23.83
2023-03-16T19:22:21.927Z,22.80
2023-03-16T19:24:55.094Z,22.43
2023-03-16T19:27:29.049Z,20.57
2023-03-16T19:29:56.749Z,27.57
2023-03-16T19:32:24.005Z,21.87
2023-03-16T19:34:51.431Z,22.63
2023-03-16T19:37:19.856Z,19.83
2023-03-16T19:39:50.108Z,26.60
2023-03-16T19:42:33.882Z,22.87
2023-03-16T19:45:01.163Z,21.97
2023-03-16T19:47:35.005Z,29.37
2023-03-16T19:50:02.034Z,20.83
2023-03-16T19:52:31.401Z,24.03
2023-03-16T19:54:58.590Z,25.57
2023-03-16T19:57:26.567Z,25.40
2023-03-16T19:59:57.769Z,35.03
2023-03-16T20:02:39.093Z,58.17
2023-03-16T20:05:21.464Z,34.97
2023-03-16T20:07:48.854Z,33.93
2023-03-16T20:10:26.056Z,38.13
2023-03-16T20:12:57.598Z,34.50
2023-03-16T20:15:32.716Z,35.20
2023-03-16T20:18:00.276Z,29.47
2023-03-16T20:20:30.994Z,29.77
2023-03-16T20:22:59.764Z,29.03
2023-03-16T20:25:33.100Z,31.57
2023-03-16T20:28:02.197Z,29.00
2023-03-16T20:30:30.867Z,22.70
2023-03-16T20:32:58.299Z,30.37
2023-03-16T20:35:29.476Z,26.73
2023-03-16T20:37:57.091Z,39.93
2023-03-16T20:40:24.510Z,31.70
2023-03-16T20:42:52.362Z,32.27
2023-03-16T20:45:27.821Z,39.27
2023-03-16T20:47:55.381Z,40.20
2023-03-16T20:50:30.763Z,37.90
2023-03-16T20:52:57.977Z,34.60
2023-03-16T20:55:29.085Z,26.67
2023-03-16T20:57:57.512Z,35.73
2023-03-16T21:00:38.846Z,35.33
2023-03-16T21:03:22.407Z,29.50
2023-03-16T21:05:54.034Z,32.47
2023-03-16T21:08:21.553Z,32.57
2023-03-16T21:10:51.388Z,33.80
2023-03-16T21:13:29.597Z,32.53
2023-03-16T21:16:00.351Z,29.97
2023-03-16T21:18:27.930Z,41.53
2023-03-16T21:20:56.289Z,35.20
2023-03-16T21:23:24.301Z,30.77
2023-03-16T21:25:56.780Z,39.93
2023-03-16T21:28:26.708Z,35.47
2023-03-16T21:30:57.517Z,34.67
2023-03-16T21:33:38.949Z,34.17
2023-03-16T21:36:17.196Z,30.47
2023-03-16T21:38:46.817Z,36.50
2023-03-16T21:41:14.968Z,39.50
2023-03-16T21:43:43.106Z,48.43
2023-03-16T21:46:19.931Z,32.80
2023-03-16T21:48:58.110Z,32.87
2023-03-16T21:51:33.596Z,39.80
2023-03-16T21:54:01.731Z,32.73
2023-03-16T21:56:29.060Z,30.87
2023-03-16T21:58:56.186Z,29.50
2023-03-16T22:01:27.790Z,30.77
2023-03-16T22:04:01.795Z,26.60
2023-03-16T22:06:29.774Z,26.53
2023-03-16T22:08:59.732Z,32.70
2023-03-16T22:11:31.409Z,34.40
2023-03-16T22:13:59.628Z,35.67
2023-03-16T22:16:31.598Z,30.93
2023-03-16T22:18:59.017Z,27.27
2023-03-16T22:21:40.372Z,35.37
2023-03-16T22:24:23.629Z,47.33
2023-03-16T22:26:51.432Z,37.57
2023-03-16T22:29:29.121Z,39.83
2023-03-16T22:32:07.366Z,42.40
2023-03-16T22:34:48.402Z,44.63
2023-03-16T22:37:23.104Z,47.53
2023-03-16T22:39:50.767Z,36.93
2023-03-16T22:42:31.379Z,41.30
2023-03-16T22:44:58.694Z,37.37
2023-03-16T22:47:32.327Z,42.17
2023-03-16T22:49:59.659Z,48.07
2023-03-16T22:52:32.759Z,40.80
2023-03-16T22:55:01.808Z,47.70
2023-03-16T22:57:29.545Z,40.80
2023-03-16T22:59:57.399Z,43.90
2023-03-16T23:02:26.402Z,40.07
2023-03-16T23:04:53.449Z,40.80
2023-03-16T23:07:20.519Z,40.53
2023-03-16T23:09:48.535Z,37.13
2023-03-16T23:12:21.462Z,45.10
2023-03-16T23:14:48.710Z,42.27
2023-03-16T23:17:25.227Z,42.97
2023-03-16T23:19:52.288Z,38.20
2023-03-16T23:22:19.410Z,46.50
2023-03-16T23:24:46.422Z,42.00
2023-03-16T23:27:22.864Z,40.80
2023-03-16T23:29:50.070Z,41.63
2023-03-16T23:32:17.276Z,47.27
2023-03-16T23:34:44.661Z,50.40
2023-03-16T23:37:11.974Z,38.67
2023-03-16T23:39:39.847Z,48.23
2023-03-16T23:42:07.231Z,46.53
2023-03-16T23:44:34.775Z,43.07
2023-03-16T23:47:02.330Z,37.67
2023-03-16T23:49:32.967Z,46.23
2023-03-16T23:52:01.869Z,41.93
2023-03-16T23:54:31.732Z,43.90
2023-03-16T23:56:59.373Z,40.27
2023-03-16T23:59:26.715Z,41.47
